McCarthy, AK

9:06 AM AKDT on October 02, 2014 (GMT -0800)
Slana | Change Station
CLOSE
Current Station
Airport
Location: Slana,
Elevation: 2421 ft
Nearby Weather Stations

Elev 2421 ft 62.73 °N, 143.92 °W | Updated 1189 days ago

Cloudy
Cloudy
25 °F
Feels Like 25 °F
N
2
Wind Variable Wind from NE
Gusts 2 mph

Today
High -- | Low -- °F
--% Chance of Precip.
Yesterday
High -- | Low -- °F
Precip. -- in
7:41 AM 6:59 PM
First Quarter, 60% visible
Pressure 29.48 in
Visibility 20.0 miles
Clouds Mostly Cloudy 3000 ft
Mostly Cloudy 6000 ft
Dew Point 14 °F
Humidity 64%
Rainfall 0.00 in
Snow Depth 0 in , 2 in , 0 in
UV 1 out of 12
Pollen Not available.
Air Quality Not available.
Flu Activity Not available.
METAR PADT 010349Z 26005KT 20SM BKN030 BKN060 14/09 A2948 RMK MAX 18 NOSPECI

More Conditions Fewer Conditions

Pressure 29.48 in
Visibility 20.0 miles
Clouds Mostly Cloudy 3000 ft
Mostly Cloudy 6000 ft
Dew Point 14 °F
Humidity 64%
Rainfall 0.00 in
Snow Depth 0 in , 2 in , 0 in
UV 1 out of 12
Pollen Not available.
Air Quality Not available.
Flu Activity Not available.
METAR PADT 010349Z 26005KT 20SM BKN030 BKN060 14/09 A2948 RMK MAX 18 NOSPECI

More Conditions Fewer Conditions

10-Day Weather Forecast

Almanac

Astronomy

Oct. 02, 2014 Rise Set
Actual Time 7:41 AM AKDT 6:59 PM AKDT
Civil Twilight 6:58 AM AKDT 7:42 PM AKDT
Nautical Twilight 6:07 AM AKDT 8:33 PM AKDT
Astronomical Twilight 5:13 AM AKDT 9:26 PM AKDT
Moon 4:39 PM AKDT No Moon Set
Length of Visible Light 12h 44m
Length of Day
11h 17m
Tomorrow will be 5m 43s shorter.
First Quarter, 60% of the Moon is Illuminated
Today
First Quarter
Oct 8
Full
Oct 15
Last Quarter
Oct 23
New
Oct 30
First Quarter

Today's Extremes

State Highs State Lows

Community

WunderPhotos

Upload Photos

1,758,298 photos uploaded!

Nearby

Snow Depth

Station Depth Elevation
Granite Creek 0 in 1240 ft
Susitna Valley High 2 in 375 ft
Moraine 0 in 2100 ft
Mcneil Canyon 1 in 1320 ft
Point Mackenzie 1 in 200 ft

Earthquake Activity

City Distance Mag. Time & Date
No recent earthquake activity has been reported nearby.
Minimum magnitude displayed is 2.5.

Coastal Water Temperatures

Place Temperature
No Stations Reporting

Nearby Weather Stations